This is the latest recevied weather packets stored in our database for station/object KB1JLI. If no packets are shown the sender has not sent any weather packets the latest 10 day(s).
| Time | Temp. | Humidity | Pressure | Rain* | Wind** | Luminosity | Snow |
|---|---|---|---|---|---|---|---|
| 1777748307 | 13.33° C | 63% | 1010.7 hPa | 0 mm | - | 199 W/m² | - |
| 1777748002 | 13.33° C | 56% | 1010.8 hPa | 0 mm | - | 131 W/m² | - |
| 1777747700 | 13.33° C | 56% | 1010.6 hPa | 0 mm | - | 149 W/m² | - |
| 1777747395 | 13.33° C | 56% | 1010.7 hPa | 0 mm | - | 131 W/m² | - |
| 1777747092 | 13.33° C | 55% | 1010.7 hPa | 0 mm | - | 118 W/m² | - |
| 1777746783 | 13.33° C | 57% | 1010.7 hPa | 0 mm | - | 116 W/m² | - |
| 1777746478 | 13.33° C | 57% | 1010.9 hPa | 0 mm | - | 154 W/m² | - |
| 1777746173 | 13.33° C | 70% | 1010.7 hPa | 0 mm | - | 146 W/m² | - |
| 1777745869 | 12.78° C | 73% | 1010.9 hPa | 0 mm | - | 152 W/m² | - |
| 1777745569 | 13.33° C | 73% | 1011 hPa | 0 mm | - | 178 W/m² | - |
| 1777745266 | 13.33° C | 73% | 1011 hPa | 0 mm | - | 178 W/m² | - |
| 1777744963 | 13.33° C | 73% | 1011.1 hPa | 0 mm | - | 164 W/m² | - |
| 1777744657 | 13.33° C | 72% | 1011.1 hPa | 0 mm | - | 138 W/m² | - |
| 1777744352 | 13.33° C | 70% | 1011 hPa | 0 mm | - | 124 W/m² | - |
| 1777744049 | 13.33° C | 70% | 1011.1 hPa | 0 mm | - | 149 W/m² | - |
| 1777743747 | 12.78° C | 70% | 1010.9 hPa | 0 mm | - | 107 W/m² | - |
| 1777743444 | 13.33° C | 69% | 1011.1 hPa | 0 mm | - | 105 W/m² | - |
| 1777743141 | 13.33° C | 70% | 1011.2 hPa | 0 mm | - | 187 W/m² | - |
| 1777742839 | 12.78° C | 70% | 1011.1 hPa | 0 mm | - | 161 W/m² | - |
| 1777742535 | 13.33° C | 70% | 1011.2 hPa | 0 mm | - | 193 W/m² | - |
| 1777742230 | 12.78° C | 70% | 1011.4 hPa | 0 mm | - | 238 W/m² | - |
| 1777741928 | 12.78° C | 70% | 1011.3 hPa | 0 mm | - | 177 W/m² | - |
| 1777741624 | 12.78° C | 73% | 1011.2 hPa | 0 mm | - | 148 W/m² | - |
| 1777741322 | 12.78° C | 72% | 1011.4 hPa | 0 mm | - | 185 W/m² | - |
| 1777741017 | 13.33° C | 71% | 1011.6 hPa | 0 mm | - | 237 W/m² | - |
* Rain latest hour (hover to see other rain measurements)
** Current wind speed in m/s (hover to see current wind gust speed)